createdAt,value
2023-11-27T00:00:41.589Z,97731.53
2023-11-27T00:02:13.223Z,97731.63
2023-11-27T00:03:44.923Z,97738.19
2023-11-27T00:05:16.580Z,97727.84
2023-11-27T00:06:48.222Z,97722.78
2023-11-27T00:08:20.553Z,97718.81
2023-11-27T00:09:52.132Z,97723.88
2023-11-27T00:11:23.767Z,97724.69
2023-11-27T00:13:00.267Z,97718.00
2023-11-27T00:14:32.416Z,97720.59
2023-11-27T00:16:04.325Z,97714.72
2023-11-27T00:17:35.960Z,97719.19
2023-11-27T00:19:08.759Z,97709.91
2023-11-27T00:20:40.389Z,97712.38
2023-11-27T00:22:12.023Z,97704.03
2023-11-27T00:23:43.638Z,97704.78
2023-11-27T00:25:15.409Z,97696.88
2023-11-27T00:26:47.098Z,97694.44
2023-11-27T00:28:18.832Z,97695.84
2023-11-27T00:29:50.478Z,97684.78
2023-11-27T00:31:22.264Z,97687.31
2023-11-27T00:32:53.888Z,97693.84
2023-11-27T00:34:25.580Z,97695.72
2023-11-27T00:35:57.333Z,97704.38
2023-11-27T00:37:28.879Z,97696.00
2023-11-27T00:39:00.563Z,97694.69
2023-11-27T00:40:33.850Z,97690.97
2023-11-27T00:42:05.658Z,97691.44
2023-11-27T00:43:37.238Z,97685.78
2023-11-27T00:45:09.154Z,97678.94
2023-11-27T00:46:41.147Z,97679.34
2023-11-27T00:48:13.029Z,97676.03
2023-11-27T00:49:44.747Z,97667.50
2023-11-27T00:51:16.309Z,97679.56
2023-11-27T00:52:48.648Z,97671.56
2023-11-27T00:54:20.605Z,97674.97
2023-11-27T00:55:52.220Z,97678.84
2023-11-27T00:57:23.848Z,97671.06
2023-11-27T00:58:55.459Z,97673.28
2023-11-27T01:00:27.079Z,97670.63
2023-11-27T01:01:58.778Z,97674.66
2023-11-27T01:03:30.420Z,97667.97
2023-11-27T01:05:02.126Z,97674.66
2023-11-27T01:06:34.264Z,97664.78
2023-11-27T01:08:06.009Z,97667.47
2023-11-27T01:09:39.652Z,97658.16
2023-11-27T01:11:11.225Z,97654.53
2023-11-27T01:12:46.933Z,97662.56
2023-11-27T01:14:19.584Z,97653.38
2023-11-27T01:15:51.232Z,97647.38
2023-11-27T01:17:22.819Z,97654.38
2023-11-27T01:18:54.445Z,97644.91
2023-11-27T01:20:26.871Z,97646.63
2023-11-27T01:21:59.226Z,97637.91
2023-11-27T01:23:32.754Z,97640.56
2023-11-27T01:25:05.680Z,97636.22
2023-11-27T01:26:37.340Z,97634.47
2023-11-27T01:28:10.309Z,97630.56
2023-11-27T01:29:41.981Z,97628.34
2023-11-27T01:31:13.952Z,97616.47
2023-11-27T01:32:46.284Z,97610.88
2023-11-27T01:34:18.633Z,97610.75
2023-11-27T01:35:50.344Z,97607.47
2023-11-27T01:37:21.976Z,97607.34
2023-11-27T01:38:54.704Z,97607.22
2023-11-27T01:40:26.466Z,97607.22
2023-11-27T01:41:58.088Z,97606.44
2023-11-27T01:43:29.659Z,97606.38
2023-11-27T01:45:01.361Z,97599.28
2023-11-27T01:46:33.489Z,97593.28
2023-11-27T01:48:05.309Z,97584.81
2023-11-27T01:49:43.279Z,97588.38
2023-11-27T01:51:15.071Z,97582.72
2023-11-27T01:52:46.678Z,97583.16
2023-11-27T01:54:19.006Z,97575.56
2023-11-27T01:55:50.530Z,97570.63
2023-11-27T01:57:23.927Z,97573.78
2023-11-27T01:58:58.425Z,97575.41
2023-11-27T02:00:31.279Z,97562.38
2023-11-27T02:02:03.200Z,97561.44
2023-11-27T02:03:34.932Z,97564.13
2023-11-27T02:05:09.076Z,97571.19
2023-11-27T02:06:41.317Z,97573.66
2023-11-27T02:08:13.003Z,97566.72
2023-11-27T02:09:44.974Z,97559.41
2023-11-27T02:11:19.786Z,97569.91
2023-11-27T02:12:51.569Z,97564.53
2023-11-27T02:14:23.114Z,97562.75
2023-11-27T02:15:54.918Z,97559.34
2023-11-27T02:17:26.551Z,97551.94
2023-11-27T02:18:58.128Z,97553.47
2023-11-27T02:20:29.689Z,97560.66
2023-11-27T02:22:01.255Z,97549.13
2023-11-27T02:23:33.048Z,97554.41
2023-11-27T02:25:04.981Z,97544.97
2023-11-27T02:26:36.961Z,97548.16
2023-11-27T02:28:08.844Z,97545.97
2023-11-27T02:29:40.446Z,97542.19
2023-11-27T02:31:12.249Z,97538.28
2023-11-27T02:32:43.805Z,97535.81
2023-11-27T02:34:18.414Z,97544.19
2023-11-27T02:35:50.067Z,97540.22
2023-11-27T02:37:21.800Z,97537.88
2023-11-27T02:38:53.682Z,97540.34
2023-11-27T02:40:25.424Z,97535.38
2023-11-27T02:41:57.194Z,97535.59
2023-11-27T02:43:28.871Z,97524.19
2023-11-27T02:45:00.616Z,97535.19
2023-11-27T02:46:32.346Z,97532.09
2023-11-27T02:48:04.604Z,97531.88
2023-11-27T02:49:36.257Z,97526.81
2023-11-27T02:51:08.101Z,97526.38
2023-11-27T02:52:39.821Z,97528.50
2023-11-27T02:54:11.577Z,97515.41
2023-11-27T02:55:43.687Z,97515.53
2023-11-27T02:57:18.840Z,97517.88
2023-11-27T02:58:50.640Z,97516.03
2023-11-27T03:00:22.465Z,97513.19
2023-11-27T03:01:54.423Z,97516.88
2023-11-27T03:03:26.304Z,97513.25
2023-11-27T03:04:57.914Z,97508.91
2023-11-27T03:06:29.462Z,97503.44
2023-11-27T03:08:02.629Z,97504.69
2023-11-27T03:09:34.525Z,97496.81
2023-11-27T03:11:06.399Z,97495.50
2023-11-27T03:12:38.329Z,97500.66
2023-11-27T03:14:09.969Z,97484.84
2023-11-27T03:15:41.503Z,97484.59
2023-11-27T03:17:13.088Z,97479.28
2023-11-27T03:18:44.714Z,97481.63
2023-11-27T03:20:16.386Z,97472.22
2023-11-27T03:21:48.476Z,97475.31
2023-11-27T03:23:20.082Z,97474.63
2023-11-27T03:24:51.746Z,97476.53
2023-11-27T03:26:23.384Z,97476.34
2023-11-27T03:27:54.981Z,97472.47
2023-11-27T03:29:26.960Z,97471.03
2023-11-27T03:30:58.570Z,97475.94
2023-11-27T03:32:30.809Z,97466.75
2023-11-27T03:34:02.760Z,97474.25
2023-11-27T03:35:34.395Z,97461.03
2023-11-27T03:37:06.034Z,97472.94
2023-11-27T03:38:37.686Z,97473.94
2023-11-27T03:40:09.974Z,97469.25
2023-11-27T03:41:41.615Z,97471.22
2023-11-27T03:43:13.264Z,97463.59
2023-11-27T03:44:44.882Z,97465.63
2023-11-27T03:46:16.691Z,97469.44
2023-11-27T03:47:48.322Z,97466.03
2023-11-27T03:49:19.895Z,97470.78
2023-11-27T03:50:51.442Z,97468.59
2023-11-27T03:52:25.877Z,97466.44
2023-11-27T03:53:57.455Z,97462.06
2023-11-27T03:55:29.067Z,97450.31
2023-11-27T03:57:00.616Z,97449.78
2023-11-27T03:58:32.354Z,97445.56
2023-11-27T04:00:07.271Z,97459.19
2023-11-27T04:01:44.158Z,97453.19
2023-11-27T04:03:15.884Z,97454.84
2023-11-27T04:04:47.767Z,97455.66
2023-11-27T04:06:24.091Z,97443.69
2023-11-27T04:07:55.660Z,97445.44
2023-11-27T04:09:27.259Z,97438.63
2023-11-27T04:10:58.785Z,97448.41
2023-11-27T04:12:33.909Z,97446.94
2023-11-27T04:14:05.670Z,97448.47
2023-11-27T04:15:37.505Z,97443.88
2023-11-27T04:17:09.068Z,97448.47
2023-11-27T04:18:40.857Z,97448.47
2023-11-27T04:20:13.041Z,97445.00
2023-11-27T04:21:44.687Z,97433.28
2023-11-27T04:23:16.205Z,97451.25
2023-11-27T04:24:47.879Z,97444.56
2023-11-27T04:26:22.843Z,97443.59
2023-11-27T04:27:54.736Z,97434.91
2023-11-27T04:29:27.580Z,97427.91
2023-11-27T04:30:59.791Z,97434.03
2023-11-27T04:32:31.470Z,97428.06
2023-11-27T04:34:03.088Z,97426.16
2023-11-27T04:35:34.726Z,97421.09
2023-11-27T04:37:06.579Z,97418.91
2023-11-27T04:38:38.232Z,97420.59
2023-11-27T04:40:11.781Z,97417.03
2023-11-27T04:41:43.724Z,97410.78
2023-11-27T04:43:15.425Z,97418.28
2023-11-27T04:44:47.114Z,97414.56
2023-11-27T04:46:18.843Z,97410.03
2023-11-27T04:47:51.238Z,97412.38
2023-11-27T04:49:22.984Z,97408.69
2023-11-27T04:50:54.551Z,97400.28
2023-11-27T04:52:26.191Z,97404.63
2023-11-27T04:53:57.881Z,97400.75
2023-11-27T04:55:29.494Z,97404.78
2023-11-27T04:57:01.177Z,97399.06
2023-11-27T04:58:32.755Z,97397.78
2023-11-27T05:00:05.249Z,97400.31
2023-11-27T05:01:37.069Z,97399.38
2023-11-27T05:03:08.702Z,97401.38
2023-11-27T05:04:40.397Z,97402.06
2023-11-27T05:06:18.139Z,97406.31
2023-11-27T05:07:50.279Z,97398.44
2023-11-27T05:09:22.941Z,97392.47
2023-11-27T05:10:55.192Z,97389.44
2023-11-27T05:12:32.872Z,97387.28
2023-11-27T05:14:05.520Z,97383.19
2023-11-27T05:15:37.705Z,97385.22
2023-11-27T05:17:09.731Z,97384.50
2023-11-27T05:18:44.237Z,97381.09
2023-11-27T05:20:16.211Z,97384.75
2023-11-27T05:21:47.726Z,97378.78
2023-11-27T05:23:19.270Z,97375.13
2023-11-27T05:24:50.940Z,97373.41
2023-11-27T05:26:22.602Z,97367.50
2023-11-27T05:27:54.438Z,97366.66
2023-11-27T05:29:26.127Z,97365.50
2023-11-27T05:30:59.673Z,97358.91
2023-11-27T05:32:31.358Z,97364.44
2023-11-27T05:34:03.025Z,97364.44
2023-11-27T05:35:34.590Z,97359.50
2023-11-27T05:37:09.883Z,97355.97
2023-11-27T05:38:41.636Z,97357.03
2023-11-27T05:40:14.501Z,97349.28
2023-11-27T05:41:50.458Z,97351.31
2023-11-27T05:43:22.177Z,97355.41
2023-11-27T05:44:54.793Z,97354.16
2023-11-27T05:46:26.442Z,97351.44
2023-11-27T05:47:58.142Z,97341.31
2023-11-27T05:49:32.184Z,97337.63
2023-11-27T05:51:04.017Z,97340.91
2023-11-27T05:52:36.315Z,97336.03
2023-11-27T05:54:10.324Z,97331.41
2023-11-27T05:55:42.216Z,97338.22
2023-11-27T05:57:14.277Z,97341.50
2023-11-27T05:58:45.802Z,97335.06
2023-11-27T06:00:17.688Z,97326.88
2023-11-27T06:01:49.772Z,97325.81
2023-11-27T06:03:21.575Z,97330.47
2023-11-27T06:04:53.347Z,97336.06
2023-11-27T06:06:24.933Z,97323.16
2023-11-27T06:07:56.533Z,97329.47
2023-11-27T06:09:28.192Z,97324.19
2023-11-27T06:11:04.834Z,97324.69
2023-11-27T06:12:36.435Z,97324.19
2023-11-27T06:14:08.299Z,97327.19
2023-11-27T06:15:47.631Z,97315.81
2023-11-27T06:17:19.357Z,97315.22
2023-11-27T06:18:51.023Z,97318.88
2023-11-27T06:20:22.719Z,97316.03
2023-11-27T06:21:54.286Z,97320.53
2023-11-27T06:23:25.882Z,97314.78
2023-11-27T06:24:58.068Z,97310.88
2023-11-27T06:26:29.836Z,97309.13
2023-11-27T06:28:01.395Z,97308.41
2023-11-27T06:29:32.927Z,97311.69
2023-11-27T06:31:04.857Z,97314.28
2023-11-27T06:32:36.578Z,97314.84
2023-11-27T06:34:08.238Z,97317.69
2023-11-27T06:35:39.934Z,97311.34
2023-11-27T06:37:11.513Z,97308.59
2023-11-27T06:38:43.169Z,97303.72
2023-11-27T06:40:17.878Z,97310.50
2023-11-27T06:41:49.885Z,97306.28
2023-11-27T06:43:21.506Z,97307.53
2023-11-27T06:44:53.125Z,97298.78
2023-11-27T06:46:24.906Z,97301.56
2023-11-27T06:47:56.514Z,97298.28
2023-11-27T06:49:28.248Z,97292.16
2023-11-27T06:50:59.929Z,97290.69
2023-11-27T06:52:31.565Z,97283.16
2023-11-27T06:54:04.106Z,97296.50
2023-11-27T06:55:36.100Z,97288.63
2023-11-27T06:57:09.582Z,97291.81
2023-11-27T06:58:41.538Z,97291.81
2023-11-27T07:00:15.438Z,97296.16
2023-11-27T07:01:47.146Z,97287.47
2023-11-27T07:03:18.825Z,97295.06
2023-11-27T07:04:50.480Z,97289.69
2023-11-27T07:06:22.071Z,97288.63
2023-11-27T07:07:53.823Z,97288.88
2023-11-27T07:09:25.402Z,97279.94
2023-11-27T07:10:57.084Z,97281.63
2023-11-27T07:12:28.727Z,97283.53
2023-11-27T07:14:20.593Z,97280.69
2023-11-27T07:15:52.499Z,97275.09
2023-11-27T07:17:24.666Z,97280.69
2023-11-27T07:18:58.637Z,97275.91
2023-11-27T07:20:30.291Z,97275.50
2023-11-27T07:22:03.128Z,97274.56
2023-11-27T07:23:35.404Z,97272.94
2023-11-27T07:25:07.900Z,97266.00
2023-11-27T07:26:40.846Z,97274.69
2023-11-27T07:28:13.119Z,97266.69
2023-11-27T07:29:44.929Z,97267.50
2023-11-27T07:31:17.803Z,97267.63
2023-11-27T07:32:49.670Z,97263.53
2023-11-27T07:34:22.907Z,97257.31
2023-11-27T07:35:54.601Z,97258.38
2023-11-27T07:37:26.440Z,97257.31
2023-11-27T07:38:58.066Z,97255.13
2023-11-27T07:40:29.750Z,97255.13
2023-11-27T07:42:01.341Z,97252.13
2023-11-27T07:43:33.947Z,97244.25
2023-11-27T07:45:06.925Z,97241.56
2023-11-27T07:46:38.595Z,97242.09
2023-11-27T07:48:10.325Z,97234.59
2023-11-27T07:49:42.016Z,97232.69
2023-11-27T07:51:13.698Z,97229.41
2023-11-27T07:52:45.270Z,97226.84
2023-11-27T07:54:16.968Z,97230.28
2023-11-27T07:55:48.622Z,97224.13
2023-11-27T07:57:20.266Z,97219.13
2023-11-27T07:58:51.898Z,97218.03
2023-11-27T08:00:27.506Z,97209.44
2023-11-27T08:01:59.383Z,97211.78
2023-11-27T08:03:31.161Z,97205.00
2023-11-27T08:05:03.013Z,97204.94
2023-11-27T08:06:34.734Z,97209.75
2023-11-27T08:08:06.404Z,97205.41
2023-11-27T08:09:38.222Z,97208.44
2023-11-27T08:11:12.681Z,97200.53
2023-11-27T08:12:44.331Z,97199.94
2023-11-27T08:14:18.077Z,97196.16
2023-11-27T08:15:49.682Z,97195.91
2023-11-27T08:17:21.344Z,97191.44
2023-11-27T08:18:53.278Z,97194.97
2023-11-27T08:20:29.810Z,97192.41
2023-11-27T08:22:05.934Z,97189.97
2023-11-27T08:23:37.623Z,97188.72
2023-11-27T08:25:11.706Z,97184.13
2023-11-27T08:26:44.049Z,97187.22
2023-11-27T08:28:16.310Z,97189.72
2023-11-27T08:29:48.797Z,97184.09
2023-11-27T08:31:20.676Z,97185.47
2023-11-27T08:32:52.483Z,97174.75
2023-11-27T08:34:24.180Z,97176.63
2023-11-27T08:35:58.690Z,97173.38
2023-11-27T08:37:36.732Z,97174.88
2023-11-27T08:39:12.093Z,97162.91
2023-11-27T08:40:43.790Z,97168.91
2023-11-27T08:42:15.800Z,97159.25
2023-11-27T08:43:47.472Z,97161.84
2023-11-27T08:45:19.533Z,97160.88
2023-11-27T08:46:51.414Z,97168.38
2023-11-27T08:48:23.074Z,97161.81
2023-11-27T08:49:54.781Z,97155.97
2023-11-27T08:51:26.699Z,97155.00
2023-11-27T08:52:59.794Z,97147.53
2023-11-27T08:54:33.835Z,97155.00
2023-11-27T08:56:07.434Z,97147.28
2023-11-27T08:57:39.079Z,97145.22
2023-11-27T08:59:11.991Z,97143.31
2023-11-27T09:00:43.746Z,97144.78
2023-11-27T09:02:17.290Z,97141.00
2023-11-27T09:03:49.429Z,97137.31
2023-11-27T09:05:24.348Z,97138.41
2023-11-27T09:06:55.950Z,97137.84
2023-11-27T09:08:27.630Z,97138.53
2023-11-27T09:09:59.226Z,97133.75
2023-11-27T09:11:32.872Z,97132.94
2023-11-27T09:13:07.097Z,97126.81
2023-11-27T09:14:39.257Z,97121.06
2023-11-27T09:16:11.999Z,97117.44
2023-11-27T09:17:44.719Z,97112.53
2023-11-27T09:19:16.388Z,97114.13
2023-11-27T09:20:47.976Z,97110.84
2023-11-27T09:22:22.458Z,97099.16
2023-11-27T09:23:55.584Z,97098.34
2023-11-27T09:25:27.512Z,97093.53
2023-11-27T09:27:00.771Z,97088.69
2023-11-27T09:28:32.441Z,97077.34
2023-11-27T09:30:11.005Z,97079.31
2023-11-27T09:31:43.217Z,97078.50
2023-11-27T09:33:14.997Z,97082.53
2023-11-27T09:34:46.569Z,97082.00
2023-11-27T09:36:18.173Z,97082.78
2023-11-27T09:37:49.920Z,97069.38
2023-11-27T09:39:21.580Z,97069.78
2023-11-27T09:40:53.459Z,97067.59
2023-11-27T09:42:35.414Z,97062.81
2023-11-27T09:44:14.409Z,97067.59
2023-11-27T09:45:46.086Z,97068.97
2023-11-27T09:47:18.909Z,97064.25
2023-11-27T09:48:51.852Z,97070.00
2023-11-27T09:50:23.924Z,97055.78
2023-11-27T09:52:03.504Z,97049.66
2023-11-27T09:53:41.971Z,97049.22
2023-11-27T09:55:15.842Z,97051.41
2023-11-27T09:56:48.384Z,97046.88
2023-11-27T09:58:23.073Z,97042.66
2023-11-27T09:59:56.948Z,97038.59
2023-11-27T10:01:32.406Z,97036.81
2023-11-27T10:03:04.782Z,97035.72
2023-11-27T10:04:36.712Z,97032.81
2023-11-27T10:06:08.660Z,97030.53
2023-11-27T10:07:40.347Z,97029.94
2023-11-27T10:09:15.866Z,97022.00
2023-11-27T10:10:49.068Z,97017.16
2023-11-27T10:12:29.579Z,97016.47
2023-11-27T10:15:50.237Z,97012.38
2023-11-27T10:17:23.267Z,97005.06
2023-11-27T10:19:03.787Z,96998.06
2023-11-27T10:20:36.711Z,96991.31
2023-11-27T10:22:10.093Z,96980.38
2023-11-27T10:23:42.808Z,96974.66
2023-11-27T10:25:17.561Z,96980.75
2023-11-27T10:26:49.215Z,96970.00
2023-11-27T10:28:22.346Z,96963.91
2023-11-27T10:29:54.322Z,96967.00
2023-11-27T10:31:26.197Z,96955.88
2023-11-27T10:32:58.338Z,96953.00
2023-11-27T10:34:34.806Z,96952.03
2023-11-27T10:36:07.329Z,96945.56
2023-11-27T10:37:39.088Z,96942.69
2023-11-27T10:39:16.137Z,96939.97
2023-11-27T10:40:48.130Z,96936.09
2023-11-27T10:42:24.404Z,96923.97
2023-11-27T10:43:57.578Z,96931.59
2023-11-27T10:45:30.696Z,96923.19
2023-11-27T10:47:05.345Z,96919.53
2023-11-27T10:48:44.311Z,96914.09
2023-11-27T10:50:18.483Z,96905.88
2023-11-27T10:51:51.132Z,96897.13
2023-11-27T10:53:24.957Z,96889.22
2023-11-27T10:54:58.138Z,96886.25
2023-11-27T10:56:31.899Z,96877.06
2023-11-27T10:58:04.869Z,96869.50
2023-11-27T10:59:41.433Z,96872.75
2023-11-27T11:01:17.107Z,96865.16
2023-11-27T11:02:54.093Z,96862.25
2023-11-27T11:04:54.359Z,96860.94
2023-11-27T11:06:27.736Z,96850.56
2023-11-27T11:08:00.497Z,96854.16
2023-11-27T11:09:32.238Z,96851.34
2023-11-27T11:11:07.432Z,96843.41
2023-11-27T11:12:42.363Z,96832.69
2023-11-27T11:14:17.105Z,96826.84
2023-11-27T11:16:15.380Z,96825.88
2023-11-27T11:18:11.991Z,96826.22
2023-11-27T11:20:02.463Z,96819.41
2023-11-27T11:21:53.388Z,96816.78
2023-11-27T11:23:37.900Z,96810.16
2023-11-27T11:25:39.851Z,96804.94
2023-11-27T11:27:31.539Z,96801.22
2023-11-27T11:29:13.034Z,96799.41
2023-11-27T11:30:45.330Z,96794.22
2023-11-27T11:32:20.209Z,96794.22
2023-11-27T11:33:51.896Z,96791.78
2023-11-27T11:35:23.486Z,96788.88
2023-11-27T11:36:58.453Z,96784.50
2023-11-27T11:38:32.228Z,96789.50
2023-11-27T11:40:05.758Z,96779.28
2023-11-27T11:41:37.760Z,96772.94
2023-11-27T11:43:09.864Z,96773.59
2023-11-27T11:44:42.769Z,96774.72
2023-11-27T11:46:21.271Z,96766.75
2023-11-27T11:47:58.553Z,96761.25
2023-11-27T11:49:30.463Z,96767.91
2023-11-27T11:51:16.657Z,96760.28
2023-11-27T11:52:48.707Z,96757.34
2023-11-27T11:54:39.818Z,96744.50
2023-11-27T11:56:20.605Z,96744.88
2023-11-27T11:57:56.734Z,96737.53
2023-11-27T11:59:36.486Z,96737.38
2023-11-27T12:01:10.144Z,96738.19
2023-11-27T12:02:44.667Z,96728.31
2023-11-27T12:04:19.432Z,96719.53
2023-11-27T12:05:55.844Z,96726.84
2023-11-27T12:07:28.137Z,96717.41
2023-11-27T12:09:01.591Z,96716.28
2023-11-27T12:10:33.376Z,96712.72
2023-11-27T12:12:05.601Z,96703.59
2023-11-27T12:13:37.924Z,96709.75
2023-11-27T12:15:12.398Z,96705.72
2023-11-27T12:16:44.264Z,96702.47
2023-11-27T12:18:16.287Z,96694.84
2023-11-27T12:19:49.175Z,96683.34
2023-11-27T12:21:24.233Z,96686.44
2023-11-27T12:22:58.125Z,96679.13
2023-11-27T12:24:30.640Z,96672.63
2023-11-27T12:26:07.789Z,96669.53
2023-11-27T12:27:39.522Z,96665.81
2023-11-27T12:29:11.284Z,96662.72
2023-11-27T12:30:44.723Z,96669.53
2023-11-27T12:32:17.002Z,96659.78
2023-11-27T12:33:49.743Z,96656.22
2023-11-27T12:35:22.467Z,96653.13
2023-11-27T12:36:54.556Z,96650.84
2023-11-27T12:38:26.232Z,96649.72
2023-11-27T12:39:58.167Z,96645.63
2023-11-27T12:41:34.985Z,96647.78
2023-11-27T12:43:09.055Z,96638.88
2023-11-27T12:44:48.002Z,96640.31
2023-11-27T12:46:19.862Z,96636.28
2023-11-27T12:47:52.609Z,96628.97
2023-11-27T12:49:25.196Z,96633.03
2023-11-27T12:50:57.509Z,96623.75
2023-11-27T12:52:32.427Z,96617.00
2023-11-27T12:54:06.036Z,96619.91
2023-11-27T12:55:39.576Z,96605.94
2023-11-27T12:57:11.925Z,96608.19
2023-11-27T12:58:43.749Z,96600.75
2023-11-27T13:00:16.424Z,96605.44
2023-11-27T13:01:54.723Z,96593.75
2023-11-27T13:03:29.393Z,96594.91
2023-11-27T13:05:03.544Z,96583.72
2023-11-27T13:06:35.241Z,96587.94
2023-11-27T13:08:07.591Z,96588.28
2023-11-27T13:09:39.956Z,96587.78
2023-11-27T13:11:22.564Z,96580.50
2023-11-27T13:12:56.015Z,96577.91
2023-11-27T13:14:27.862Z,96579.03
2023-11-27T13:16:03.284Z,96571.09
2023-11-27T13:17:38.427Z,96569.47
2023-11-27T13:19:10.503Z,96569.91
2023-11-27T13:20:49.756Z,96570.28
2023-11-27T13:22:23.146Z,96561.84
2023-11-27T13:23:54.989Z,96565.56
2023-11-27T13:25:36.322Z,96558.94
2023-11-27T13:27:08.817Z,96555.38
2023-11-27T13:28:43.943Z,96551.13
2023-11-27T13:30:28.005Z,96549.38
2023-11-27T13:32:02.407Z,96550.50
2023-11-27T13:33:34.146Z,96549.22
2023-11-27T13:35:07.456Z,96544.53
2023-11-27T13:36:43.320Z,96538.84
2023-11-27T13:38:21.303Z,96534.63
2023-11-27T13:39:58.791Z,96533.66
2023-11-27T13:41:31.324Z,96528.31
2023-11-27T13:43:10.009Z,96520.84
2023-11-27T13:44:46.050Z,96517.28
2023-11-27T13:46:17.862Z,96513.38
2023-11-27T13:47:54.386Z,96512.63
2023-11-27T13:49:27.524Z,96512.75
2023-11-27T13:50:59.373Z,96508.19
2023-11-27T13:52:32.365Z,96504.63
2023-11-27T13:54:04.812Z,96501.38
2023-11-27T13:55:37.163Z,96494.44
2023-11-27T13:57:10.338Z,96490.03
2023-11-27T13:58:42.017Z,96482.91
2023-11-27T14:00:22.828Z,96483.88
2023-11-27T14:01:56.608Z,96480.47
2023-11-27T14:03:29.933Z,96475.28
2023-11-27T14:05:08.370Z,96478.34
2023-11-27T14:06:46.718Z,96471.03
2023-11-27T14:08:30.748Z,96472.88
2023-11-27T14:10:06.639Z,96466.72
2023-11-27T14:11:49.429Z,96471.44
2023-11-27T14:13:22.861Z,96462.97
2023-11-27T14:15:09.525Z,96465.09
2023-11-27T14:16:46.089Z,96456.16
2023-11-27T14:18:23.160Z,96454.09
2023-11-27T14:20:13.770Z,96448.59
2023-11-27T14:22:03.994Z,96448.38
2023-11-27T14:23:41.717Z,96439.16
2023-11-27T14:25:32.097Z,96440.44
2023-11-27T14:27:22.887Z,96440.47
2023-11-27T14:29:06.626Z,96429.78
2023-11-27T14:30:38.683Z,96431.72
2023-11-27T14:32:10.358Z,96434.97
2023-11-27T14:33:42.056Z,96420.53
2023-11-27T14:35:16.463Z,96425.06
2023-11-27T14:36:51.926Z,96420.69
2023-11-27T14:38:26.773Z,96419.09
2023-11-27T14:39:58.722Z,96411.13
2023-11-27T14:41:31.024Z,96410.16
2023-11-27T14:43:02.802Z,96414.06
2023-11-27T14:44:35.094Z,96412.94
2023-11-27T14:46:11.943Z,96410.34
2023-11-27T14:47:47.376Z,96399.03
2023-11-27T14:49:20.588Z,96406.13
2023-11-27T14:50:55.007Z,96402.25
2023-11-27T14:52:27.228Z,96400.00
2023-11-27T14:54:01.172Z,96391.41
2023-11-27T14:55:34.368Z,96392.66
2023-11-27T14:57:10.585Z,96389.78
2023-11-27T14:58:42.356Z,96388.81
2023-11-27T15:00:29.174Z,96391.56
2023-11-27T15:02:02.697Z,96384.09
2023-11-27T15:03:36.069Z,96377.59
2023-11-27T15:05:08.620Z,96378.72
2023-11-27T15:06:42.361Z,96372.78
2023-11-27T15:08:15.886Z,96363.88
2023-11-27T15:09:47.610Z,96365.81
2023-11-27T15:11:19.424Z,96365.50
2023-11-27T15:12:52.034Z,96355.91
2023-11-27T15:14:24.271Z,96352.34
2023-11-27T15:15:55.937Z,96352.03
2023-11-27T15:17:28.090Z,96348.81
2023-11-27T15:18:59.770Z,96345.53
2023-11-27T15:20:35.416Z,96336.13
2023-11-27T15:22:11.352Z,96341.09
2023-11-27T15:23:43.811Z,96332.88
2023-11-27T15:25:24.135Z,96323.50
2023-11-27T15:26:56.840Z,96327.56
2023-11-27T15:28:28.642Z,96327.28
2023-11-27T15:30:00.457Z,96323.50
2023-11-27T15:31:39.164Z,96321.44
2023-11-27T15:33:11.031Z,96321.28
2023-11-27T15:34:42.700Z,96317.59
2023-11-27T15:36:14.463Z,96309.69
2023-11-27T15:37:47.741Z,96308.34
2023-11-27T15:39:27.007Z,96315.97
2023-11-27T15:40:58.874Z,96298.66
2023-11-27T15:42:31.261Z,96304.84
2023-11-27T15:44:03.547Z,96307.41
2023-11-27T15:45:35.888Z,96307.91
2023-11-27T15:47:07.666Z,96294.88
2023-11-27T15:48:39.463Z,96297.53
2023-11-27T15:50:17.803Z,96292.19
2023-11-27T15:51:49.486Z,96288.97
2023-11-27T15:53:21.158Z,96285.72
2023-11-27T15:54:52.848Z,96280.53
2023-11-27T15:56:24.494Z,96283.38
2023-11-27T15:57:56.123Z,96277.63
2023-11-27T15:59:29.412Z,96277.31
2023-11-27T16:01:01.108Z,96272.78
2023-11-27T16:02:32.823Z,96264.56
2023-11-27T16:04:05.784Z,96262.56
2023-11-27T16:05:37.483Z,96264.16
2023-11-27T16:07:09.905Z,96254.56
2023-11-27T16:08:41.997Z,96249.72
2023-11-27T16:10:16.782Z,96246.44
2023-11-27T16:11:48.746Z,96240.84
2023-11-27T16:13:20.515Z,96239.88
2023-11-27T16:14:52.323Z,96238.75
2023-11-27T16:16:24.278Z,96232.38
2023-11-27T16:18:00.790Z,96220.56
2023-11-27T16:19:33.252Z,96222.09
2023-11-27T16:21:06.361Z,96220.84
2023-11-27T16:22:38.194Z,96218.22
2023-11-27T16:24:10.164Z,96214.44
2023-11-27T16:25:44.884Z,96208.59
2023-11-27T16:27:18.077Z,96214.97
2023-11-27T16:28:50.036Z,96212.22
2023-11-27T16:30:22.843Z,96207.81
2023-11-27T16:31:55.346Z,96204.56
2023-11-27T16:33:27.093Z,96205.19
2023-11-27T16:35:00.795Z,96193.31
2023-11-27T16:36:32.836Z,96193.78
2023-11-27T16:38:05.261Z,96182.88
2023-11-27T16:39:37.151Z,96181.28
2023-11-27T16:41:08.909Z,96177.84
2023-11-27T16:42:41.127Z,96174.31
2023-11-27T16:44:12.845Z,96176.81
2023-11-27T16:45:44.770Z,96174.19
2023-11-27T16:47:23.878Z,96169.81
2023-11-27T16:49:00.028Z,96169.50
2023-11-27T16:50:31.767Z,96166.16
2023-11-27T16:52:04.468Z,96166.44
2023-11-27T16:53:36.555Z,96166.59
2023-11-27T16:55:08.878Z,96160.81
2023-11-27T16:56:40.954Z,96160.63
2023-11-27T16:58:12.637Z,96165.47
2023-11-27T16:59:45.198Z,96161.44
2023-11-27T17:01:17.751Z,96157.28
2023-11-27T17:02:56.722Z,96150.16
2023-11-27T17:04:28.665Z,96162.34
2023-11-27T17:06:03.587Z,96155.78
2023-11-27T17:07:36.825Z,96154.44
2023-11-27T17:09:08.871Z,96149.81
2023-11-27T17:10:41.729Z,96151.63
2023-11-27T17:12:14.320Z,96157.75
2023-11-27T17:13:48.761Z,96157.41
2023-11-27T17:15:21.915Z,96156.13
2023-11-27T17:16:54.213Z,96156.94
2023-11-27T17:18:26.272Z,96162.75
2023-11-27T17:19:58.115Z,96160.00
2023-11-27T17:21:29.957Z,96157.72
2023-11-27T17:23:06.632Z,96162.72
2023-11-27T17:24:39.148Z,96159.34
2023-11-27T17:26:10.855Z,96160.94
2023-11-27T17:27:46.834Z,96157.72
2023-11-27T17:29:20.042Z,96155.28
2023-11-27T17:30:51.696Z,96156.38
2023-11-27T17:32:24.257Z,96158.38
2023-11-27T17:33:56.974Z,96156.13
2023-11-27T17:35:28.730Z,96153.50
2023-11-27T17:37:00.406Z,96150.25
2023-11-27T17:38:35.962Z,96143.63
2023-11-27T17:40:14.881Z,96149.81
2023-11-27T17:41:47.244Z,96144.44
2023-11-27T17:43:19.012Z,96140.72
2023-11-27T17:44:54.030Z,96143.31
2023-11-27T17:46:25.735Z,96138.75
2023-11-27T17:47:57.492Z,96131.47
2023-11-27T17:49:29.303Z,96138.13
2023-11-27T17:51:01.015Z,96133.41
2023-11-27T17:52:32.661Z,96130.84
2023-11-27T17:54:05.115Z,96137.66
2023-11-27T17:55:45.176Z,96130.19
2023-11-27T17:57:20.147Z,96123.06
2023-11-27T17:58:51.854Z,96115.81
2023-11-27T18:00:23.790Z,96111.28
2023-11-27T18:01:56.274Z,96111.75
2023-11-27T18:03:29.859Z,96113.25
2023-11-27T18:05:07.064Z,96115.84
2023-11-27T18:06:42.088Z,96110.19
2023-11-27T18:08:13.877Z,96106.09
2023-11-27T18:09:45.649Z,96105.66
2023-11-27T18:11:17.248Z,96109.84
2023-11-27T18:12:49.099Z,96107.75
2023-11-27T18:14:20.934Z,96097.91
2023-11-27T18:15:52.782Z,96105.16
2023-11-27T18:17:24.876Z,96103.09
2023-11-27T18:18:57.091Z,96100.66